Quarteles, New Mexico
Current Conditions -  °F | °C
As of 3:15 PM on Thursday 27 Nov 2014 (Local Time) from KLAM Reporting Station
Clear Clear  
Wind Chill: 56°   Ceiling: Unl
Heat Index: 56°   Visibility: 10mi
Dew Point: 19°   Wind: 6mph
Humidity: 23%   Direction: 180°S
Pressure: 30.39"   Gusts: NA
Location:  35.9775°N, 106.158°W
Report Text: KLAM 272215Z AUTO 18005KT 10SM CLR 13/M07 A3039 RMK AO2 T01321075
Loading
Personal Weather Stations






























Interactive Weather Map New forecast layout! Learn more

10-Day Weather Forecast

Advertisements
Track Severe Weather on mobile